Time;durP1;ratioP1;P1;durP2;ratioP2;P2;SDS_P1;SDS_P2;PMS_P1;PMS_P2;Temp;Humidity;BMP_temperature;BMP_pressure;BME280_temperature;BME280_humidity;BME280_pressure;Samples;Min_cycle;Max_cycle;Signal;HPM_P1;HPM_P2
2022/07/17 00:02:05;;;;;;;4.30;1.20;;;19.40;71.40;;;;;;5091171;27;45654;-74
2022/07/17 00:04:33;;;;;;;6.82;1.35;;;19.40;70.90;;;;;;5095294;27;45461;-73
2022/07/17 00:07:00;;;;;;;6.75;1.30;;;19.40;71.20;;;;;;5096299;27;45415;-74
2022/07/17 00:09:27;;;;;;;4.60;1.20;;;19.40;70.70;;;;;;5101167;27;45391;-73
2022/07/17 00:11:53;;;;;;;3.22;1.17;;;19.40;70.80;;;;;;5095419;27;45582;-74
2022/07/17 00:14:20;;;;;;;4.40;1.00;;;19.50;70.60;;;;;;5088856;27;45347;-73
2022/07/17 00:16:47;;;;;;;6.03;1.00;;;19.40;70.60;;;;;;5089882;27;45280;-73
2022/07/17 00:19:14;;;;;;;4.22;1.10;;;19.40;70.90;;;;;;5093029;27;45307;-73
2022/07/17 00:21:42;;;;;;;4.85;1.20;;;19.40;70.40;;;;;;5092782;27;48264;-74
2022/07/17 00:24:10;;;;;;;2.83;1.02;;;19.40;70.70;;;;;;5093460;27;45434;-73
2022/07/17 00:26:37;;;;;;;7.68;1.25;;;19.40;71.10;;;;;;5098854;27;45454;-73
2022/07/17 00:29:04;;;;;;;5.25;1.00;;;19.40;70.60;;;;;;5095332;27;45601;-74
2022/07/17 00:31:31;;;;;;;5.68;1.50;;;19.30;70.60;;;;;;5100670;27;48046;-74
2022/07/17 00:33:58;;;;;;;5.88;1.50;;;19.20;70.40;;;;;;5092984;27;45309;-74
2022/07/17 00:36:25;;;;;;;1.60;0.88;;;19.10;70.40;;;;;;5089412;27;45293;-73
2022/07/17 00:38:53;;;;;;;1.92;0.90;;;18.90;71.30;;;;;;5087468;27;45371;-73
2022/07/17 00:41:20;;;;;;;4.57;1.20;;;18.70;72.30;;;;;;5095524;27;46338;-73
2022/07/17 00:43:47;;;;;;;7.43;1.77;;;18.60;71.60;;;;;;5092262;27;45466;-74
2022/07/17 00:46:14;;;;;;;6.03;0.88;;;18.60;72.40;;;;;;5091707;27;45378;-74
2022/07/17 00:48:41;;;;;;;2.35;1.00;;;18.50;72.70;;;;;;5092305;27;45463;-73
2022/07/17 00:51:09;;;;;;;4.18;1.00;;;18.50;73.90;;;;;;5089902;27;45462;-74
2022/07/17 00:53:37;;;;;;;6.70;1.20;;;18.50;74.20;;;;;;5091997;27;45394;-73
2022/07/17 00:56:07;;;;;;;6.78;1.20;;;18.50;73.30;;;;;;5090389;27;45366;-73
2022/07/17 00:58:36;;;;;;;4.72;1.00;;;18.40;73.80;;;;;;5095660;27;45461;-74
2022/07/17 01:01:06;;;;;;;3.90;1.30;;;18.30;73.50;;;;;;5097426;27;48698;-74
2022/07/17 01:03:33;;;;;;;6.18;1.40;;;18.40;75.10;;;;;;5096152;27;45479;-73
2022/07/17 01:06:00;;;;;;;5.15;1.13;;;18.50;75.60;;;;;;5094933;27;45300;-74
2022/07/17 01:08:27;;;;;;;3.75;1.15;;;18.60;74.50;;;;;;5103699;27;45509;-73
2022/07/17 01:10:54;;;;;;;4.93;1.15;;;18.60;74.10;;;;;;5105295;27;46717;-73
2022/07/17 01:13:22;;;;;;;10.48;1.35;;;18.60;74.40;;;;;;5106101;27;45319;-73
2022/07/17 01:15:49;;;;;;;2.78;0.98;;;18.50;73.50;;;;;;5106021;27;45367;-73
2022/07/17 01:18:16;;;;;;;5.47;1.25;;;18.50;74.30;;;;;;5106022;27;45449;-73
2022/07/17 01:20:45;;;;;;;4.05;1.10;;;18.50;74.50;;;;;;5105456;27;47421;-73
2022/07/17 01:23:14;;;;;;;4.20;1.08;;;18.50;75.00;;;;;;5105930;27;45326;-72
2022/07/17 01:25:40;;;;;;;4.70;1.25;;;18.40;74.40;;;;;;5106822;27;45251;-73
2022/07/17 01:28:08;;;;;;;7.57;1.20;;;18.30;75.30;;;;;;5106030;27;45268;-73
2022/07/17 01:30:35;;;;;;;3.58;1.08;;;18.30;75.40;;;;;;5105633;27;46603;-73
2022/07/17 01:33:02;;;;;;;3.50;1.20;;;18.30;75.90;;;;;;5105894;27;45444;-73
2022/07/17 01:35:28;;;;;;;2.47;1.23;;;18.20;74.80;;;;;;5104973;27;45300;-73
2022/07/17 01:37:55;;;;;;;4.20;0.98;;;18.20;75.80;;;;;;5105975;27;45431;-73
2022/07/17 01:40:23;;;;;;;3.45;1.05;;;18.10;75.70;;;;;;5093840;27;47097;-73
2022/07/17 01:42:51;;;;;;;8.27;1.35;;;18.10;76.10;;;;;;5085076;28;45280;-73
2022/07/17 01:45:19;;;;;;;3.90;1.00;;;18.20;76.10;;;;;;5085377;28;45343;-73
2022/07/17 01:47:46;;;;;;;6.68;1.20;;;18.20;75.10;;;;;;5086556;27;45210;-73
2022/07/17 01:50:14;;;;;;;4.53;1.20;;;18.20;76.30;;;;;;5098693;27;45441;-73
2022/07/17 01:52:43;;;;;;;3.85;1.15;;;18.30;76.30;;;;;;5097249;27;45327;-73
2022/07/17 01:55:11;;;;;;;4.15;1.15;;;18.40;76.80;;;;;;5096259;27;45983;-73
2022/07/17 01:57:39;;;;;;;4.13;1.17;;;18.50;76.10;;;;;;5105238;27;45433;-73
2022/07/17 02:00:09;;;;;;;3.45;1.17;;;18.50;75.90;;;;;;5105169;27;46376;-73
2022/07/17 02:02:36;;;;;;;1.55;1.02;;;18.50;75.40;;;;;;5105798;27;45346;-73
2022/07/17 02:05:04;;;;;;;4.10;1.13;;;18.60;75.10;;;;;;5105572;27;45332;-73
2022/07/17 02:07:31;;;;;;;2.97;1.10;;;18.60;75.00;;;;;;5105622;27;45473;-73
2022/07/17 02:09:58;;;;;;;6.93;1.50;;;18.60;75.20;;;;;;5103758;27;46874;-73
2022/07/17 02:12:24;;;;;;;5.93;1.30;;;18.50;74.70;;;;;;5105051;27;45493;-73
2022/07/17 02:14:52;;;;;;;5.45;1.17;;;18.50;74.80;;;;;;5104699;27;45408;-72
2022/07/17 02:17:21;;;;;;;3.90;1.15;;;18.50;74.20;;;;;;5105775;27;45265;-73
2022/07/17 02:19:48;;;;;;;3.83;1.27;;;18.40;74.50;;;;;;5101892;27;47755;-73
2022/07/17 02:22:15;;;;;;;2.72;1.20;;;18.30;74.90;;;;;;5104486;27;45685;-73
2022/07/17 02:24:41;;;;;;;3.47;1.27;;;18.10;75.00;;;;;;5104919;27;45257;-73
2022/07/17 02:27:08;;;;;;;3.78;1.10;;;18.10;75.20;;;;;;5100853;27;45322;-73
2022/07/17 02:29:35;;;;;;;4.32;1.20;;;18.00;76.50;;;;;;5104433;27;47363;-73
2022/07/17 02:32:04;;;;;;;4.10;1.30;;;18.10;75.60;;;;;;5104796;27;45312;-73
2022/07/17 02:34:31;;;;;;;2.67;1.35;;;18.00;76.30;;;;;;5104636;27;45425;-74
2022/07/17 02:36:58;;;;;;;6.57;1.35;;;18.00;76.50;;;;;;5104266;27;45398;-73
2022/07/17 02:39:24;;;;;;;5.22;1.15;;;18.00;76.50;;;;;;5101155;27;45414;-73
2022/07/17 02:41:51;;;;;;;7.35;1.42;;;17.90;76.40;;;;;;5084179;28;45319;-73
2022/07/17 02:44:18;;;;;;;5.05;1.40;;;17.80;76.30;;;;;;5083997;27;45354;-73
2022/07/17 02:46:44;;;;;;;5.22;1.27;;;17.80;76.40;;;;;;5084693;28;45711;-73
2022/07/17 02:49:13;;;;;;;6.30;1.20;;;17.80;76.30;;;;;;5083093;28;47507;-73
2022/07/17 02:51:39;;;;;;;5.78;1.63;;;17.90;77.10;;;;;;5088184;27;45341;-74
2022/07/17 02:54:06;;;;;;;3.00;0.90;;;17.90;76.40;;;;;;5103878;27;45374;-73
2022/07/17 02:56:33;;;;;;;4.05;0.93;;;17.90;76.40;;;;;;5104846;27;45358;-73
2022/07/17 02:59:00;;;;;;;5.97;1.20;;;17.80;76.30;;;;;;5104309;27;46460;-73
2022/07/17 03:01:27;;;;;;;3.63;1.20;;;17.70;76.20;;;;;;5089355;27;45553;-73
2022/07/17 03:03:54;;;;;;;2.75;1.23;;;17.70;77.30;;;;;;5084068;28;45306;-73
2022/07/17 03:06:22;;;;;;;5.60;1.02;;;17.70;77.30;;;;;;5084276;28;45249;-73
2022/07/17 03:08:50;;;;;;;3.95;1.02;;;17.60;76.90;;;;;;5089965;27;45508;-74
2022/07/17 03:11:17;;;;;;;5.63;1.70;;;17.60;77.30;;;;;;5103899;27;45333;-73
2022/07/17 03:13:44;;;;;;;3.75;1.48;;;17.50;77.80;;;;;;5104124;27;45383;-74
2022/07/17 03:16:10;;;;;;;4.82;1.20;;;17.30;78.50;;;;;;5104309;27;45414;-73
2022/07/17 03:18:37;;;;;;;4.57;1.42;;;17.30;79.00;;;;;;5104029;27;45533;-74
2022/07/17 03:21:04;;;;;;;6.65;1.40;;;17.40;79.60;;;;;;5102928;27;45305;-74
2022/07/17 03:23:32;;;;;;;5.88;1.42;;;17.40;79.60;;;;;;5087516;27;45261;-73
2022/07/17 03:25:59;;;;;;;7.38;1.25;;;17.40;79.50;;;;;;5099905;27;45308;-73
2022/07/17 03:28:26;;;;;;;5.45;1.20;;;17.40;79.30;;;;;;5103685;27;46349;-73
2022/07/17 03:30:52;;;;;;;6.50;1.35;;;17.30;79.40;;;;;;5083206;27;45277;-73
2022/07/17 03:33:19;;;;;;;4.28;1.30;;;17.20;79.30;;;;;;5083899;28;45398;-73
2022/07/17 03:35:46;;;;;;;4.28;1.40;;;17.00;81.30;;;;;;5083995;27;45412;-73
2022/07/17 03:38:13;;;;;;;5.60;1.40;;;17.00;80.60;;;;;;5082595;28;45727;-73
2022/07/17 03:40:41;;;;;;;5.30;2.03;;;17.00;80.70;;;;;;5096528;27;45281;-73
2022/07/17 03:43:07;;;;;;;4.13;1.27;;;17.00;80.70;;;;;;5104073;27;45339;-73
2022/07/17 03:45:34;;;;;;;5.63;1.10;;;17.00;81.30;;;;;;5103906;27;45238;-73
2022/07/17 03:48:01;;;;;;;4.40;1.30;;;17.00;80.70;;;;;;5101494;27;46339;-73
2022/07/17 03:50:29;;;;;;;5.88;1.60;;;16.90;80.80;;;;;;5097296;27;45277;-74
2022/07/17 03:52:56;;;;;;;4.35;1.10;;;17.00;81.10;;;;;;5103268;27;45435;-73
2022/07/17 03:55:23;;;;;;;4.10;1.30;;;17.10;80.40;;;;;;5102905;27;45490;-73
2022/07/17 03:57:51;;;;;;;3.47;1.40;;;17.10;80.10;;;;;;5103222;27;46364;-73
2022/07/17 04:00:18;;;;;;;5.00;1.73;;;17.20;80.30;;;;;;5102982;27;45397;-73
2022/07/17 04:02:45;;;;;;;4.25;1.20;;;17.10;80.00;;;;;;5094018;27;45379;-73
2022/07/17 04:05:12;;;;;;;4.03;1.20;;;17.10;80.00;;;;;;5102758;27;45456;-73
2022/07/17 04:07:40;;;;;;;7.97;1.60;;;17.20;80.50;;;;;;5101903;27;46723;-73
2022/07/17 04:10:08;;;;;;;3.92;1.40;;;17.20;80.80;;;;;;5100074;27;45267;-73
2022/07/17 04:12:35;;;;;;;7.30;1.40;;;17.20;80.30;;;;;;5101492;27;45260;-73
2022/07/17 04:15:05;;;;;;;5.65;1.20;;;17.20;80.10;;;;;;5097681;27;45554;-73
2022/07/17 04:17:31;;;;;;;5.85;1.10;;;17.20;80.30;;;;;;5094533;27;47385;-73
2022/07/17 04:19:58;;;;;;;6.45;1.85;;;17.20;80.80;;;;;;5099054;27;45491;-73
2022/07/17 04:22:25;;;;;;;7.72;1.45;;;17.30;80.70;;;;;;5100332;27;45375;-73
2022/07/17 04:24:53;;;;;;;4.55;1.58;;;17.40;81.20;;;;;;5093290;27;45510;-73
2022/07/17 04:27:20;;;;;;;3.95;1.25;;;17.40;80.00;;;;;;5089815;27;45429;-73
2022/07/17 04:29:47;;;;;;;2.03;1.08;;;17.40;79.90;;;;;;5096737;27;45240;-73
2022/07/17 04:32:15;;;;;;;6.18;1.63;;;17.30;80.60;;;;;;5101814;27;45376;-73
2022/07/17 04:34:42;;;;;;;5.45;1.48;;;17.20;79.70;;;;;;5099381;27;45391;-74
2022/07/17 04:37:08;;;;;;;3.75;1.23;;;17.20;80.30;;;;;;5103563;27;47513;-73
2022/07/17 04:39:35;;;;;;;2.72;1.20;;;17.10;80.50;;;;;;5096936;27;45400;-73
2022/07/17 04:42:02;;;;;;;5.97;1.10;;;17.10;80.70;;;;;;5098827;27;45371;-73
2022/07/17 04:44:29;;;;;;;3.63;1.38;;;17.10;79.80;;;;;;5102835;27;45535;-73
2022/07/17 04:46:56;;;;;;;2.95;1.30;;;17.10;80.40;;;;;;5093504;27;47450;-73
2022/07/17 04:49:24;;;;;;;4.65;1.48;;;17.20;80.90;;;;;;5105081;27;45504;-73
2022/07/17 04:51:51;;;;;;;5.03;1.30;;;17.10;81.20;;;;;;5105404;27;45511;-73
2022/07/17 04:54:18;;;;;;;6.45;1.63;;;17.20;81.70;;;;;;5100103;27;45325;-73
2022/07/17 04:56:44;;;;;;;5.90;1.60;;;17.20;80.90;;;;;;5100929;27;47029;-73
2022/07/17 04:59:11;;;;;;;6.60;1.83;;;17.30;81.10;;;;;;5106265;27;45296;-73
2022/07/17 05:01:38;;;;;;;4.95;1.25;;;17.30;81.30;;;;;;5099131;27;45504;-73
2022/07/17 05:04:05;;;;;;;4.20;1.40;;;17.30;80.80;;;;;;5103761;27;45382;-73
2022/07/17 05:06:33;;;;;;;8.40;1.60;;;17.30;81.00;;;;;;5102511;27;45418;-74
2022/07/17 05:09:00;;;;;;;8.85;1.63;;;17.30;82.10;;;;;;5101749;27;45440;-73
2022/07/17 05:11:27;;;;;;;4.32;1.90;;;17.10;81.30;;;;;;5097380;27;45431;-73
2022/07/17 05:13:54;;;;;;;10.48;2.15;;;15.00;91.40;;;;;;5106137;27;45294;-74
2022/07/17 05:16:21;;;;;;;9.77;1.77;;;14.30;94.50;;;;;;5091635;27;46623;-73
2022/07/17 05:18:48;;;;;;;7.57;2.00;;;14.10;96.10;;;;;;5092134;27;45375;-73
2022/07/17 05:21:15;;;;;;;3.95;1.77;;;14.00;97.40;;;;;;5103413;27;45540;-74
2022/07/17 05:23:43;;;;;;;9.70;2.15;;;14.10;97.60;;;;;;5097804;27;45878;-73
2022/07/17 05:26:10;;;;;;;7.30;2.08;;;14.00;97.90;;;;;;5089306;27;47451;-73
2022/07/17 05:28:37;;;;;;;6.38;1.90;;;14.00;98.20;;;;;;5096462;27;45202;-73
2022/07/17 05:31:04;;;;;;;5.97;2.00;;;14.10;98.00;;;;;;5101264;27;45349;-73
2022/07/17 05:33:30;;;;;;;10.07;2.33;;;14.20;98.00;;;;;;5091815;27;45340;-73
2022/07/17 05:35:57;;;;;;;8.93;2.05;;;14.40;97.60;;;;;;5103290;27;45476;-73
2022/07/17 05:38:24;;;;;;;2.83;1.70;;;14.50;97.40;;;;;;5102682;27;45642;-73
2022/07/17 05:40:52;;;;;;;5.32;1.85;;;14.70;97.10;;;;;;5109674;27;45412;-74
2022/07/17 05:43:19;;;;;;;6.22;1.83;;;14.90;96.30;;;;;;5094392;27;45248;-73
2022/07/17 05:45:45;;;;;;;8.98;2.55;;;15.10;96.10;;;;;;5088678;27;47787;-73
2022/07/17 05:48:12;;;;;;;5.65;1.95;;;15.20;95.80;;;;;;5093586;27;45316;-72
2022/07/17 05:50:39;;;;;;;8.07;2.72;;;15.30;95.40;;;;;;5095218;27;45443;-73
2022/07/17 05:53:06;;;;;;;7.50;1.98;;;15.60;94.00;;;;;;5097763;27;45589;-74
2022/07/17 05:55:32;;;;;;;5.97;2.17;;;15.70;93.40;;;;;;5094799;27;47373;-74
2022/07/17 05:58:01;;;;;;;8.93;2.40;;;15.80;92.80;;;;;;5092395;27;46471;-75
2022/07/17 06:00:27;;;;;;;10.77;2.08;;;16.00;92.10;;;;;;5096849;27;45446;-74
2022/07/17 06:02:54;;;;;;;7.10;2.05;;;15.90;92.00;;;;;;5091340;27;45503;-72
2022/07/17 06:05:21;;;;;;;8.57;2.53;;;16.10;92.00;;;;;;5098597;27;45447;-73
2022/07/17 06:07:48;;;;;;;7.20;1.92;;;16.20;91.60;;;;;;5095791;27;45528;-73
2022/07/17 06:10:15;;;;;;;12.02;2.05;;;16.40;91.10;;;;;;5093459;27;45305;-72
2022/07/17 06:12:42;;;;;;;6.82;2.05;;;16.40;91.10;;;;;;5100215;27;45430;-75
2022/07/17 06:15:11;;;;;;;7.07;2.35;;;16.30;91.60;;;;;;5096734;27;46396;-73
2022/07/17 06:17:38;;;;;;;6.10;1.58;;;16.60;91.20;;;;;;5095884;27;45371;-72
2022/07/17 06:20:06;;;;;;;5.40;1.55;;;17.30;89.20;;;;;;5101344;27;45262;-73
2022/07/17 06:22:32;;;;;;;4.88;1.50;;;17.40;86.90;;;;;;5098831;27;45372;-72
2022/07/17 06:24:59;;;;;;;4.50;1.20;;;17.80;83.40;;;;;;5092011;27;46636;-73
2022/07/17 06:27:26;;;;;;;6.57;1.35;;;17.60;88.20;;;;;;5102208;27;45432;-72
2022/07/17 06:29:53;;;;;;;5.25;1.65;;;18.60;82.50;;;;;;5099342;27;45404;-72
2022/07/17 06:32:21;;;;;;;3.78;1.30;;;19.30;78.50;;;;;;5101213;27;45522;-72
2022/07/17 06:34:48;;;;;;;4.13;1.33;;;19.50;77.20;;;;;;5098150;27;48273;-71
2022/07/17 06:37:14;;;;;;;3.90;1.52;;;19.60;76.50;;;;;;5096017;27;45446;-72
2022/07/17 06:39:41;;;;;;;6.82;1.52;;;19.60;76.00;;;;;;5092933;27;45428;-72
2022/07/17 06:42:10;;;;;;;4.28;0.90;;;20.40;74.30;;;;;;5093763;27;45421;-72
2022/07/17 06:44:36;;;;;;;4.40;1.30;;;20.90;71.60;;;;;;5096605;27;47060;-73
2022/07/17 06:47:03;;;;;;;2.92;1.30;;;21.20;69.80;;;;;;5103801;27;45884;-72
2022/07/17 06:49:32;;;;;;;1.27;0.93;;;21.40;68.40;;;;;;5095740;27;45429;-72
2022/07/17 06:51:58;;;;;;;2.00;0.90;;;21.60;67.70;;;;;;5094663;27;45582;-73
2022/07/17 06:54:27;;;;;;;3.75;1.30;;;21.60;67.30;;;;;;5104323;27;46939;-72
2022/07/17 06:56:53;;;;;;;1.70;0.95;;;21.70;67.10;;;;;;5099344;27;45322;-72
2022/07/17 06:59:20;;;;;;;4.60;1.10;;;21.70;66.50;;;;;;5093155;27;45351;-72
2022/07/17 07:01:47;;;;;;;1.42;0.90;;;21.80;66.40;;;;;;5088866;27;45464;-72
2022/07/17 07:04:15;;;;;;;2.70;1.00;;;21.80;67.00;;;;;;5102483;27;46634;-72
2022/07/17 07:06:43;;;;;;;2.92;1.05;;;21.80;67.50;;;;;;5103369;27;45329;-72
2022/07/17 07:09:11;;;;;;;2.20;0.70;;;21.90;67.00;;;;;;5101249;27;45409;-72
2022/07/17 07:11:38;;;;;;;1.90;0.90;;;21.90;67.00;;;;;;5104128;27;45589;-72
2022/07/17 07:14:05;;;;;;;2.58;0.75;;;21.90;67.00;;;;;;5103596;27;46436;-72
2022/07/17 07:16:32;;;;;;;1.38;0.90;;;21.90;67.10;;;;;;5083641;27;45317;-72
2022/07/17 07:18:59;;;;;;;1.88;0.68;;;21.90;67.10;;;;;;5083883;28;45463;-72
2022/07/17 07:21:26;;;;;;;2.05;0.90;;;22.00;67.20;;;;;;5082729;28;45372;-71
2022/07/17 07:23:55;;;;;;;2.25;0.93;;;22.00;67.30;;;;;;5083286;27;45507;-73
2022/07/17 07:26:22;;;;;;;1.40;0.70;;;22.00;67.30;;;;;;5087304;27;45374;-73
2022/07/17 07:28:49;;;;;;;1.50;0.70;;;22.00;67.30;;;;;;5124829;27;45355;-72
2022/07/17 07:31:17;;;;;;;1.40;1.05;;;22.00;67.40;;;;;;5123649;27;45485;-71
2022/07/17 07:33:44;;;;;;;1.50;1.00;;;22.00;67.40;;;;;;5090713;27;47529;-71
2022/07/17 07:36:11;;;;;;;2.58;0.98;;;22.00;67.50;;;;;;5083295;28;45450;-71
2022/07/17 07:38:38;;;;;;;2.88;1.05;;;22.00;67.60;;;;;;5083543;28;45273;-72
2022/07/17 07:41:06;;;;;;;2.33;0.90;;;22.00;67.50;;;;;;5092448;27;45411;-72
2022/07/17 07:43:33;;;;;;;0.95;0.73;;;22.00;67.50;;;;;;5103475;27;45433;-72
2022/07/17 07:46:00;;;;;;;3.03;1.00;;;22.00;67.60;;;;;;5103727;27;45337;-72
2022/07/17 07:48:26;;;;;;;1.75;0.88;;;22.00;67.70;;;;;;5103210;27;45300;-72
2022/07/17 07:50:53;;;;;;;1.40;1.00;;;22.00;67.70;;;;;;5085473;27;45352;-72
2022/07/17 07:53:20;;;;;;;2.83;0.80;;;22.00;67.80;;;;;;5082724;28;46606;-72
2022/07/17 07:55:47;;;;;;;1.85;1.10;;;22.00;67.80;;;;;;5085895;27;45405;-72
2022/07/17 07:58:15;;;;;;;1.38;0.73;;;22.00;67.70;;;;;;5103379;27;45531;-72
2022/07/17 08:00:45;;;;;;;3.10;0.70;;;22.00;67.80;;;;;;5102907;27;45431;-73
2022/07/17 08:03:12;;;;;;;1.20;0.65;;;22.00;67.80;;;;;;5103267;27;45286;-72
2022/07/17 08:05:38;;;;;;;1.95;0.73;;;22.10;67.80;;;;;;5104044;27;45313;-72
2022/07/17 08:08:06;;;;;;;0.80;0.70;;;22.00;67.80;;;;;;5087882;27;45288;-73
2022/07/17 08:10:33;;;;;;;1.15;0.80;;;22.10;68.00;;;;;;5106538;27;45423;-71
2022/07/17 08:12:59;;;;;;;4.63;0.80;;;22.10;68.00;;;;;;5106767;27;45482;-72
2022/07/17 08:15:28;;;;;;;0.82;0.65;;;22.00;67.90;;;;;;5106516;27;45360;-72
2022/07/17 08:17:54;;;;;;;1.10;0.60;;;22.10;68.00;;;;;;5105565;27;45424;-72
2022/07/17 08:20:22;;;;;;;1.75;0.73;;;22.10;68.00;;;;;;5108686;27;45308;-72
2022/07/17 08:22:50;;;;;;;2.17;0.80;;;22.10;68.00;;;;;;5095542;27;48448;-72
2022/07/17 08:25:17;;;;;;;2.85;1.00;;;22.10;67.90;;;;;;5106450;27;45399;-72
2022/07/17 08:27:45;;;;;;;2.30;1.08;;;22.10;67.90;;;;;;5106496;27;45511;-72
2022/07/17 08:30:14;;;;;;;1.77;0.68;;;22.10;67.90;;;;;;5106209;27;45599;-72
2022/07/17 08:32:43;;;;;;;2.05;0.80;;;22.10;67.90;;;;;;5106193;27;45365;-72
2022/07/17 08:35:10;;;;;;;1.70;0.65;;;22.10;67.90;;;;;;5106472;27;45327;-72
2022/07/17 08:37:44;;;;;;;1.15;0.70;;;22.10;67.80;;;;;;5106731;27;45232;-72
2022/07/17 08:40:17;;;;;;;1.63;0.63;;;22.10;67.90;;;;;;5102448;27;45252;-73
2022/07/17 08:42:44;;;;;;;1.13;0.73;;;22.10;67.80;;;;;;5085965;28;47231;-71
2022/07/17 08:45:11;;;;;;;1.30;0.93;;;22.10;67.80;;;;;;5085988;28;45419;-72
2022/07/17 08:47:38;;;;;;;1.60;0.70;;;22.10;67.80;;;;;;5086160;28;45291;-71
2022/07/17 08:50:07;;;;;;;0.70;0.52;;;22.10;67.70;;;;;;5085538;28;45209;-72
2022/07/17 08:52:34;;;;;;;0.63;0.47;;;22.10;67.70;;;;;;5085363;28;46026;-72
2022/07/17 08:55:01;;;;;;;1.15;0.70;;;22.10;67.60;;;;;;5085742;28;45343;-72
2022/07/17 08:57:28;;;;;;;0.80;0.60;;;22.10;67.60;;;;;;5102694;27;45471;-72
2022/07/17 08:59:55;;;;;;;0.85;0.68;;;22.10;67.70;;;;;;5105871;27;45509;-73
2022/07/17 09:02:22;;;;;;;0.77;0.60;;;22.10;67.60;;;;;;5106076;27;45464;-72
2022/07/17 09:04:54;;;;;;;0.80;0.55;;;22.10;67.50;;;;;;5106418;27;45469;-72
2022/07/17 09:07:22;;;;;;;1.17;0.63;;;22.20;67.50;;;;;;5105923;27;45254;-72
2022/07/17 09:09:53;;;;;;;1.00;0.70;;;22.10;67.40;;;;;;5106806;27;45482;-72
2022/07/17 09:12:25;;;;;;;1.40;0.82;;;22.10;67.40;;;;;;5106379;27;46619;-72
2022/07/17 09:14:52;;;;;;;1.38;0.65;;;22.20;68.40;;;;;;5103303;27;45430;-72
2022/07/17 09:17:19;;;;;;;0.85;0.47;;;22.20;67.30;;;;;;5104561;27;45311;-72
2022/07/17 09:19:46;;;;;;;1.10;0.57;;;22.20;67.50;;;;;;5105596;27;45411;-72
2022/07/17 09:22:18;;;;;;;1.42;0.55;;;22.20;67.40;;;;;;5099974;27;48565;-72
2022/07/17 09:24:48;;;;;;;1.38;0.70;;;22.20;67.30;;;;;;5082259;28;45274;-72
2022/07/17 09:27:30;;;;;;;1.42;0.50;;;22.20;67.30;;;;;;5096518;27;45493;-72
2022/07/17 09:29:59;;;;;;;0.40;0.40;;;22.20;67.30;;;;;;5105627;27;45512;-72
2022/07/17 09:32:27;;;;;;;2.63;0.80;;;22.20;67.10;;;;;;5090805;27;47524;-72
2022/07/17 09:34:56;;;;;;;1.65;0.50;;;22.20;67.10;;;;;;5085152;28;46029;-72
2022/07/17 09:37:24;;;;;;;2.08;0.70;;;22.20;67.10;;;;;;5084871;28;45272;-72
2022/07/17 09:39:53;;;;;;;1.25;0.80;;;22.20;67.10;;;;;;5084865;28;45340;-72
2022/07/17 09:42:25;;;;;;;0.60;0.50;;;22.20;66.80;;;;;;5084854;27;45316;-72
2022/07/17 09:45:00;;;;;;;1.15;0.52;;;22.20;66.80;;;;;;5085208;28;45292;-72
2022/07/17 09:47:28;;;;;;;1.55;0.65;;;22.20;66.80;;;;;;5084638;28;45582;-72
2022/07/17 09:49:57;;;;;;;0.73;0.40;;;22.20;66.70;;;;;;5084768;27;45371;-72
2022/07/17 09:52:26;;;;;;;0.80;0.60;;;22.20;66.70;;;;;;5084775;28;45590;-72
2022/07/17 09:54:55;;;;;;;0.63;0.60;;;22.20;66.70;;;;;;5083905;28;45264;-72
2022/07/17 09:57:26;;;;;;;0.90;0.60;;;22.20;66.70;;;;;;5102113;27;45413;-72
2022/07/17 09:59:55;;;;;;;0.88;0.57;;;22.20;66.70;;;;;;5104855;27;45313;-72
2022/07/17 10:02:22;;;;;;;1.40;0.50;;;22.20;66.80;;;;;;5105164;27;45281;-72
2022/07/17 10:04:49;;;;;;;0.88;0.47;;;22.20;66.70;;;;;;5104506;27;45372;-72
2022/07/17 10:07:16;;;;;;;1.25;0.75;;;22.20;66.60;;;;;;5084676;28;45275;-72
2022/07/17 10:09:43;;;;;;;1.02;0.45;;;22.20;66.60;;;;;;5092949;27;45367;-72
2022/07/17 10:12:12;;;;;;;0.73;0.40;;;22.20;66.70;;;;;;5104556;27;46299;-73
2022/07/17 10:14:41;;;;;;;1.27;0.60;;;22.20;66.60;;;;;;5096977;27;45497;-72
2022/07/17 10:17:09;;;;;;;1.58;0.60;;;22.20;66.60;;;;;;5084285;28;45384;-72
2022/07/17 10:19:45;;;;;;;1.98;0.70;;;22.20;66.50;;;;;;5084384;28;45308;-72
2022/07/17 10:22:12;;;;;;;1.33;0.52;;;22.20;66.40;;;;;;5084424;27;46275;-72
2022/07/17 10:24:47;;;;;;;1.13;0.65;;;22.20;66.40;;;;;;5086512;27;45377;-72
2022/07/17 10:27:21;;;;;;;1.25;0.50;;;22.20;67.50;;;;;;5103711;27;45574;-73
2022/07/17 10:29:48;;;;;;;1.17;0.60;;;22.20;66.30;;;;;;5103247;27;45686;-72
2022/07/17 10:32:17;;;;;;;1.20;0.40;;;22.20;66.30;;;;;;5104867;27;47506;-72
2022/07/17 10:34:45;;;;;;;0.63;0.50;;;22.30;66.40;;;;;;5104118;27;45774;-72
2022/07/17 10:37:24;;;;;;;2.45;0.73;;;22.20;66.20;;;;;;5104903;27;45317;-72
2022/07/17 10:40:16;;;;;;;1.95;0.70;;;22.30;66.30;;;;;;5094669;27;45399;-72
2022/07/17 10:42:53;;;;;;;1.23;0.50;;;22.20;67.00;;;;;;5080297;27;46992;-72
2022/07/17 10:45:22;;;;;;;1.60;0.55;;;22.20;66.00;;;;;;5104232;27;45444;-72
2022/07/17 10:47:52;;;;;;;0.98;0.50;;;22.20;65.90;;;;;;5104459;27;45336;-72
2022/07/17 10:50:21;;;;;;;0.70;0.50;;;22.20;65.90;;;;;;5103759;27;45414;-72
2022/07/17 10:53:08;;;;;;;0.65;0.60;;;22.20;65.90;;;;;;5104519;27;47538;-72
2022/07/17 10:55:36;;;;;;;1.75;0.47;;;22.20;65.70;;;;;;5103535;27;45264;-72
2022/07/17 10:58:04;;;;;;;1.00;0.50;;;22.30;65.80;;;;;;5084855;27;45329;-73
2022/07/17 11:00:31;;;;;;;1.50;0.50;;;22.20;65.70;;;;;;5090469;27;45346;-72
2022/07/17 11:03:08;;;;;;;0.80;0.60;;;22.20;65.60;;;;;;5104214;27;47161;-72
2022/07/17 11:05:35;;;;;;;1.20;0.60;;;22.20;65.60;;;;;;5101451;27;45238;-72
2022/07/17 11:08:02;;;;;;;1.17;0.60;;;22.20;65.40;;;;;;5104478;27;45217;-72
2022/07/17 11:10:29;;;;;;;0.63;0.52;;;22.20;65.50;;;;;;5103612;27;45520;-72
2022/07/17 11:13:10;;;;;;;0.73;0.50;;;22.30;65.60;;;;;;5103826;27;46145;-72
2022/07/17 11:15:44;;;;;;;2.10;0.63;;;22.30;65.50;;;;;;5087927;27;45434;-72
2022/07/17 11:18:13;;;;;;;0.95;0.55;;;22.20;65.50;;;;;;5083815;28;45251;-72
2022/07/17 11:20:51;;;;;;;1.00;0.80;;;22.30;65.60;;;;;;5082553;28;45313;-73
2022/07/17 11:23:18;;;;;;;1.85;0.60;;;22.30;65.60;;;;;;5083414;27;47420;-72
2022/07/17 11:25:56;;;;;;;0.95;0.50;;;22.30;65.50;;;;;;5082175;28;45303;-72
2022/07/17 11:28:32;;;;;;;1.02;0.60;;;22.30;65.50;;;;;;5101337;27;45409;-72
2022/07/17 11:31:00;;;;;;;1.60;0.70;;;22.30;65.40;;;;;;5102763;27;45372;-73
2022/07/17 11:33:27;;;;;;;1.33;0.68;;;22.30;65.40;;;;;;5103614;27;46300;-74
2022/07/17 11:35:55;;;;;;;0.50;0.50;;;22.30;65.20;;;;;;5103745;27;45354;-72
2022/07/17 11:38:29;;;;;;;0.30;0.30;;;22.30;65.20;;;;;;5103833;27;45296;-72
2022/07/17 11:40:57;;;;;;;0.40;0.40;;;22.30;65.20;;;;;;5103224;27;45470;-72
2022/07/17 11:43:24;;;;;;;0.60;0.60;;;22.30;65.20;;;;;;5103396;27;48103;-72
2022/07/17 11:45:52;;;;;;;0.95;0.60;;;22.30;65.10;;;;;;5103615;27;45343;-72
2022/07/17 11:48:19;;;;;;;0.77;0.60;;;22.30;65.20;;;;;;5090130;27;45217;-72
2022/07/17 11:50:57;;;;;;;0.93;0.50;;;22.30;65.10;;;;;;5082703;28;45463;-72
2022/07/17 11:53:35;;;;;;;1.75;0.52;;;22.30;64.90;;;;;;5082495;28;47396;-72
2022/07/17 11:56:02;;;;;;;1.20;0.60;;;22.30;64.90;;;;;;5082308;28;45375;-72
2022/07/17 11:58:40;;;;;;;1.58;0.60;;;22.30;64.90;;;;;;5083235;28;45301;-72
2022/07/17 12:01:09;;;;;;;0.57;0.50;;;22.30;64.80;;;;;;5093028;27;45420;-72
2022/07/17 12:03:35;;;;;;;1.30;0.60;;;22.30;64.80;;;;;;5103299;27;48766;-72
2022/07/17 12:06:02;;;;;;;1.05;0.43;;;22.30;64.60;;;;;;5083123;27;45400;-72
2022/07/17 12:08:29;;;;;;;0.90;0.60;;;22.30;64.70;;;;;;5088232;27;45556;-72
2022/07/17 12:11:04;;;;;;;0.75;0.50;;;22.30;64.40;;;;;;5091119;27;45468;-72
2022/07/17 12:13:40;;;;;;;1.55;0.60;;;22.30;64.30;;;;;;5103058;27;46597;-72
2022/07/17 12:16:21;;;;;;;0.40;0.40;;;22.30;64.20;;;;;;5103367;27;45233;-72
2022/07/17 12:18:57;;;;;;;0.85;0.60;;;22.30;64.20;;;;;;5102998;27;45368;-72
2022/07/17 12:21:24;;;;;;;1.05;0.70;;;22.30;64.20;;;;;;5096975;27;45311;-72
2022/07/17 12:23:58;;;;;;;0.77;0.52;;;22.30;64.10;;;;;;5082613;27;45728;-72
2022/07/17 12:26:25;;;;;;;0.80;0.60;;;22.30;63.90;;;;;;5099355;27;45325;-72
2022/07/17 12:28:52;;;;;;;0.57;0.52;;;22.30;63.80;;;;;;5082773;27;45520;-72
2022/07/17 12:31:23;;;;;;;0.90;0.70;;;22.30;63.70;;;;;;5089250;27;45264;-72
2022/07/17 12:33:52;;;;;;;2.53;0.50;;;22.30;63.60;;;;;;5102978;27;47246;-73
2022/07/17 12:36:19;;;;;;;1.15;0.60;;;22.30;63.50;;;;;;5102192;27;45323;-72
2022/07/17 12:38:45;;;;;;;0.93;0.60;;;22.30;63.60;;;;;;5094779;27;45517;-72
2022/07/17 12:41:12;;;;;;;0.82;0.70;;;22.30;63.40;;;;;;5082326;28;45730;-72
2022/07/17 12:43:39;;;;;;;0.65;0.40;;;22.30;63.50;;;;;;5090633;27;47560;-72
2022/07/17 12:46:07;;;;;;;0.63;0.57;;;22.30;63.50;;;;;;5086310;27;45437;-72
2022/07/17 12:48:38;;;;;;;0.95;0.60;;;22.30;63.50;;;;;;5082122;28;45217;-73
2022/07/17 12:51:05;;;;;;;0.57;0.50;;;22.30;63.50;;;;;;5081793;27;45332;-72